createdAt,value
2019-04-22T00:00:36.029Z,98.10
2019-04-22T00:03:09.204Z,98.30
2019-04-22T00:06:01.131Z,98.40
2019-04-22T00:08:43.075Z,98.60
2019-04-22T00:11:23.970Z,98.90
2019-04-22T00:13:58.149Z,99.10
2019-04-22T00:16:37.783Z,99.20
2019-04-22T00:19:24.312Z,99.30
2019-04-22T00:22:01.195Z,99.20
2019-04-22T00:24:23.997Z,99.00
2019-04-22T00:27:04.090Z,98.90
2019-04-22T00:32:24.087Z,99.10
2019-04-22T00:35:09.970Z,99.00
2019-04-22T00:37:54.766Z,99.00
2019-04-22T00:40:32.289Z,98.80
2019-04-22T00:43:06.725Z,98.60
2019-04-22T00:45:44.821Z,98.70
2019-04-22T00:48:16.487Z,98.70
2019-04-22T00:50:55.677Z,99.30
2019-04-22T00:53:30.070Z,99.20
2019-04-22T00:58:45.335Z,99.60
2019-04-22T01:06:28.643Z,99.50
2019-04-22T01:09:08.739Z,99.60
2019-04-22T01:11:37.851Z,99.60
2019-04-22T01:14:22.996Z,99.60
2019-04-22T01:17:01.487Z,99.60
2019-04-22T01:19:39.036Z,99.80
2019-04-22T01:22:13.126Z,99.80
2019-04-22T01:24:48.610Z,99.90
2019-04-22T01:29:51.791Z,99.90
2019-04-22T01:32:18.671Z,99.90
2019-04-22T01:35:04.802Z,99.90
2019-04-22T01:37:40.458Z,99.90
2019-04-22T01:40:24.219Z,99.90
2019-04-22T01:43:03.779Z,99.90
2019-04-22T01:48:36.643Z,99.90
2019-04-22T01:51:07.869Z,99.90
2019-04-22T01:53:43.008Z,99.90
2019-04-22T01:56:20.903Z,99.90
2019-04-22T01:58:44.095Z,99.90
2019-04-22T02:01:30.878Z,99.90
2019-04-22T02:04:01.237Z,99.90
2019-04-22T02:06:46.309Z,99.90
2019-04-22T02:11:56.379Z,99.90
2019-04-22T02:14:33.038Z,99.90
2019-04-22T02:19:35.716Z,99.90
2019-04-22T02:22:24.835Z,99.90
2019-04-22T02:24:50.893Z,99.90
2019-04-22T02:27:32.532Z,99.90
2019-04-22T02:29:58.024Z,99.90
2019-04-22T02:33:20.012Z,99.90
2019-04-22T02:35:55.082Z,99.90
2019-04-22T02:38:19.963Z,99.90
2019-04-22T02:41:16.048Z,99.90
2019-04-22T02:49:01.959Z,99.90
2019-04-22T02:51:28.147Z,99.90
2019-04-22T02:56:37.908Z,99.90
2019-04-22T03:02:14.522Z,99.90
2019-04-22T03:07:37.716Z,99.90
2019-04-22T03:10:29.872Z,99.90
2019-04-22T03:16:17.880Z,99.90
2019-04-22T03:18:57.097Z,99.90
2019-04-22T03:21:18.822Z,99.90
2019-04-22T03:28:57.108Z,99.90
2019-04-22T03:32:35.995Z,99.90
2019-04-22T03:37:22.431Z,99.90
2019-04-22T03:47:33.602Z,99.90
2019-04-22T03:50:17.623Z,99.90
2019-04-22T03:52:30.974Z,99.90
2019-04-22T04:00:17.376Z,99.90
2019-04-22T04:08:26.732Z,99.90
2019-04-22T04:10:53.561Z,99.90
2019-04-22T04:13:39.570Z,99.90
2019-04-22T04:16:10.880Z,99.90
2019-04-22T04:24:11.320Z,99.90
2019-04-22T04:32:09.768Z,99.90
2019-04-22T04:34:50.572Z,99.90
2019-04-22T04:39:43.290Z,99.90
2019-04-22T04:42:25.484Z,99.90
2019-04-22T04:47:43.579Z,99.90
2019-04-22T04:50:05.861Z,99.90
2019-04-22T04:53:01.244Z,99.90
2019-04-22T04:58:04.115Z,99.90
2019-04-22T05:03:10.619Z,99.90
2019-04-22T05:10:56.515Z,99.90
2019-04-22T05:13:46.144Z,99.90
2019-04-22T05:18:49.211Z,99.90
2019-04-22T05:21:16.415Z,99.90
2019-04-22T05:26:48.464Z,99.90
2019-04-22T05:32:27.006Z,99.90
2019-04-22T05:35:25.314Z,99.90
2019-04-22T05:40:20.044Z,99.90
2019-04-22T05:42:51.525Z,99.90
2019-04-22T05:45:32.800Z,99.90
2019-04-22T05:48:15.025Z,99.90
2019-04-22T05:50:52.647Z,99.90
2019-04-22T05:53:25.762Z,99.90
2019-04-22T05:58:46.452Z,99.90
2019-04-22T06:04:11.559Z,99.90
2019-04-22T06:06:42.955Z,99.90
2019-04-22T06:12:18.862Z,99.80
2019-04-22T06:15:12.171Z,99.00
2019-04-22T06:18:07.943Z,98.90
2019-04-22T06:20:53.910Z,98.70
2019-04-22T06:29:09.257Z,97.10
2019-04-22T06:31:55.958Z,96.60
2019-04-22T06:34:22.132Z,96.10
2019-04-22T06:40:02.495Z,95.10
2019-04-22T06:42:36.639Z,95.40
2019-04-22T06:48:01.920Z,93.40
2019-04-22T06:50:36.823Z,90.30
2019-04-22T06:53:25.054Z,85.60
2019-04-22T06:58:25.685Z,75.80
2019-04-22T07:01:09.428Z,71.80
2019-04-22T07:03:53.686Z,67.90
2019-04-22T07:11:43.231Z,58.50
2019-04-22T07:14:22.482Z,58.20
2019-04-22T07:17:02.240Z,56.70
2019-04-22T07:19:45.330Z,56.00
2019-04-22T07:22:26.028Z,55.00
2019-04-22T07:24:58.991Z,53.60
2019-04-22T07:27:37.307Z,53.00
2019-04-22T07:30:22.445Z,52.60
2019-04-22T07:35:36.019Z,52.10
2019-04-22T07:38:11.260Z,52.50
2019-04-22T07:40:48.687Z,50.80
2019-04-22T07:43:26.648Z,50.50
2019-04-22T07:49:02.095Z,49.80
2019-04-22T07:51:32.960Z,48.40
2019-04-22T07:54:01.451Z,48.70
2019-04-22T07:56:50.784Z,48.60
2019-04-22T07:59:09.595Z,48.60
2019-04-22T08:01:42.278Z,48.30
2019-04-22T08:07:12.878Z,47.90
2019-04-22T08:09:51.011Z,47.40
2019-04-22T08:12:28.156Z,46.70
2019-04-22T08:14:59.830Z,47.00
2019-04-22T08:20:18.937Z,46.20
2019-04-22T08:23:01.232Z,45.30
2019-04-22T08:25:32.945Z,44.70
2019-04-22T08:28:10.639Z,44.10
2019-04-22T08:30:50.576Z,43.70
2019-04-22T08:33:39.804Z,42.20
2019-04-22T08:38:52.841Z,43.10
2019-04-22T08:44:27.877Z,41.50
2019-04-22T08:49:18.918Z,43.20
2019-04-22T08:54:57.375Z,42.90
2019-04-22T08:57:40.896Z,43.30
2019-04-22T09:00:09.179Z,43.50
2019-04-22T09:02:46.838Z,43.90
2019-04-22T09:05:47.093Z,43.90
2019-04-22T09:10:51.805Z,43.80
2019-04-22T09:13:30.131Z,43.90
2019-04-22T09:16:08.897Z,44.00
2019-04-22T09:18:48.717Z,44.40
2019-04-22T09:21:30.487Z,44.40
2019-04-22T09:24:18.009Z,44.70
2019-04-22T09:27:22.654Z,45.90
2019-04-22T09:29:28.019Z,46.90
2019-04-22T09:32:06.848Z,46.60
2019-04-22T09:34:33.702Z,46.10
2019-04-22T09:43:31.790Z,43.80
2019-04-22T09:49:38.412Z,43.50
2019-04-22T09:58:16.171Z,42.70
2019-04-22T10:06:35.322Z,43.90
2019-04-22T10:11:39.178Z,44.40
2019-04-22T10:14:18.969Z,43.60
2019-04-22T10:19:38.727Z,44.20
2019-04-22T10:25:10.698Z,44.20
2019-04-22T10:27:51.381Z,44.50
2019-04-22T10:30:39.222Z,45.10
2019-04-22T10:33:08.544Z,45.90
2019-04-22T10:35:19.255Z,46.30
2019-04-22T10:37:52.444Z,46.00
2019-04-22T10:40:36.471Z,45.20
2019-04-22T10:43:11.508Z,44.70
2019-04-22T10:45:57.846Z,44.60
2019-04-22T10:48:34.361Z,44.20
2019-04-22T10:51:08.597Z,44.60
2019-04-22T10:53:42.094Z,44.80
2019-04-22T10:56:20.911Z,44.50
2019-04-22T10:59:14.239Z,44.10
2019-04-22T11:02:21.508Z,43.90
2019-04-22T11:04:30.424Z,43.80
2019-04-22T11:07:07.691Z,43.70
2019-04-22T11:09:51.776Z,43.50
2019-04-22T11:12:35.462Z,43.20
2019-04-22T11:15:12.248Z,43.10
2019-04-22T11:17:51.410Z,43.00
2019-04-22T11:20:26.070Z,42.50
2019-04-22T11:23:05.129Z,42.20
2019-04-22T11:25:47.814Z,41.90
2019-04-22T11:28:18.001Z,41.40
2019-04-22T11:30:56.397Z,40.70
2019-04-22T11:33:34.370Z,40.40
2019-04-22T11:36:15.687Z,39.70
2019-04-22T11:39:01.926Z,39.00
2019-04-22T11:41:47.395Z,38.30
2019-04-22T11:44:31.272Z,37.60
2019-04-22T11:47:09.646Z,36.90
2019-04-22T11:50:21.810Z,35.90
2019-04-22T11:52:35.072Z,35.60
2019-04-22T11:55:14.960Z,35.00
2019-04-22T11:58:01.436Z,34.50
2019-04-22T12:00:41.033Z,35.00
2019-04-22T12:03:28.573Z,35.00
2019-04-22T12:08:49.966Z,33.50
2019-04-22T12:11:24.014Z,33.00
2019-04-22T12:14:00.177Z,32.30
2019-04-22T12:16:39.403Z,32.10
2019-04-22T12:19:15.690Z,32.10
2019-04-22T12:21:57.249Z,32.90
2019-04-22T12:24:28.226Z,32.80
2019-04-22T12:27:00.300Z,32.40
2019-04-22T12:29:48.945Z,31.90
2019-04-22T12:32:27.807Z,31.10
2019-04-22T12:35:05.376Z,30.60
2019-04-22T12:37:47.175Z,30.40
2019-04-22T12:40:25.926Z,30.50
2019-04-22T12:42:49.112Z,30.20
2019-04-22T12:45:26.564Z,29.90
2019-04-22T12:48:02.110Z,29.90
2019-04-22T12:50:48.553Z,29.60
2019-04-22T12:53:16.734Z,29.60
2019-04-22T12:55:55.185Z,29.80
2019-04-22T12:58:25.589Z,30.10
2019-04-22T13:01:01.055Z,30.00
2019-04-22T13:03:32.003Z,29.80
2019-04-22T13:06:03.859Z,29.80
2019-04-22T13:08:37.917Z,29.70
2019-04-22T13:11:17.700Z,29.50
2019-04-22T13:13:54.835Z,29.30
2019-04-22T13:16:26.971Z,28.90
2019-04-22T13:19:05.642Z,28.70
2019-04-22T13:21:48.943Z,28.20
2019-04-22T13:24:25.789Z,28.20
2019-04-22T13:27:01.256Z,27.90
2019-04-22T13:29:37.110Z,27.60
2019-04-22T13:32:14.558Z,28.10
2019-04-22T13:34:57.964Z,28.00
2019-04-22T13:37:35.066Z,28.00
2019-04-22T13:40:19.251Z,27.80
2019-04-22T13:42:51.170Z,27.50
2019-04-22T13:45:30.519Z,27.50
2019-04-22T13:48:16.715Z,27.30
2019-04-22T13:51:21.928Z,27.00
2019-04-22T13:54:40.453Z,26.70
2019-04-22T13:56:35.709Z,26.40
2019-04-22T13:59:01.987Z,26.40
2019-04-22T14:01:34.727Z,26.20
2019-04-22T14:04:20.601Z,26.40
2019-04-22T14:06:56.686Z,26.90
2019-04-22T14:09:38.209Z,27.60
2019-04-22T14:12:16.245Z,27.70
2019-04-22T14:14:52.477Z,27.70
2019-04-22T14:17:27.050Z,27.50
2019-04-22T14:20:02.622Z,27.40
2019-04-22T14:22:39.110Z,27.30
2019-04-22T14:25:12.474Z,27.20
2019-04-22T14:27:55.879Z,27.10
2019-04-22T14:30:24.280Z,26.90
2019-04-22T14:32:55.967Z,26.60
2019-04-22T14:35:35.469Z,26.60
2019-04-22T14:38:14.090Z,26.50
2019-04-22T14:40:51.978Z,26.70
2019-04-22T14:46:57.109Z,27.90
2019-04-22T14:49:31.462Z,28.10
2019-04-22T14:52:10.709Z,27.70
2019-04-22T14:54:34.062Z,27.30
2019-04-22T14:56:52.062Z,27.20
2019-04-22T14:59:25.069Z,26.90
2019-04-22T15:01:59.042Z,26.80
2019-04-22T15:04:31.274Z,26.40
2019-04-22T15:07:16.917Z,26.50
2019-04-22T15:09:48.078Z,26.60
2019-04-22T15:12:31.291Z,27.30
2019-04-22T15:14:59.710Z,27.40
2019-04-22T15:17:36.708Z,27.20
2019-04-22T15:20:16.011Z,27.00
2019-04-22T15:22:52.656Z,26.90
2019-04-22T15:25:30.773Z,26.60
2019-04-22T15:28:05.673Z,26.50
2019-04-22T15:30:55.599Z,26.40
2019-04-22T15:33:15.253Z,26.20
2019-04-22T15:35:47.294Z,26.10
2019-04-22T15:38:22.755Z,26.00
2019-04-22T15:41:00.751Z,25.90
2019-04-22T15:43:43.700Z,26.20
2019-04-22T15:46:21.025Z,26.80
2019-04-22T15:49:02.153Z,27.10
2019-04-22T15:51:38.640Z,27.00
2019-04-22T15:54:21.864Z,28.00
2019-04-22T15:57:10.861Z,28.70
2019-04-22T16:00:14.449Z,28.80
2019-04-22T16:02:33.992Z,27.50
2019-04-22T16:05:08.597Z,26.80
2019-04-22T16:07:40.274Z,27.20
2019-04-22T16:10:15.840Z,27.90
2019-04-22T16:13:07.521Z,28.40
2019-04-22T16:15:34.240Z,30.00
2019-04-22T16:18:09.418Z,32.20
2019-04-22T16:20:56.313Z,34.60
2019-04-22T16:23:32.170Z,35.90
2019-04-22T16:26:15.268Z,37.10
2019-04-22T16:28:45.174Z,38.50
2019-04-22T16:31:21.664Z,40.00
2019-04-22T16:33:58.322Z,40.80
2019-04-22T16:39:28.871Z,42.70
2019-04-22T16:48:33.709Z,45.00
2019-04-22T16:51:13.873Z,45.80
2019-04-22T16:54:02.174Z,46.70
2019-04-22T16:56:33.942Z,47.30
2019-04-22T16:59:08.833Z,47.90
2019-04-22T17:01:54.456Z,48.20
2019-04-22T17:04:51.304Z,48.40
2019-04-22T17:07:40.560Z,48.90
2019-04-22T17:10:22.046Z,49.40
2019-04-22T17:13:02.339Z,49.80
2019-04-22T17:15:29.206Z,49.80
2019-04-22T17:18:03.276Z,50.10
2019-04-22T17:20:37.763Z,50.00
2019-04-22T17:23:11.755Z,50.20
2019-04-22T17:25:42.616Z,50.30
2019-04-22T17:28:15.059Z,50.80
2019-04-22T17:30:45.725Z,50.90
2019-04-22T17:33:16.863Z,51.10
2019-04-22T17:35:50.282Z,51.50
2019-04-22T17:38:31.075Z,51.80
2019-04-22T17:41:13.329Z,52.20
2019-04-22T17:43:53.864Z,52.50
2019-04-22T17:46:37.560Z,52.90
2019-04-22T17:49:34.284Z,53.30
2019-04-22T17:52:24.619Z,53.60
2019-04-22T17:54:56.235Z,53.90
2019-04-22T17:57:33.041Z,54.30
2019-04-22T18:00:11.412Z,54.60
2019-04-22T18:02:48.679Z,54.90
2019-04-22T18:05:16.293Z,55.20
2019-04-22T18:08:11.691Z,55.40
2019-04-22T18:10:47.640Z,55.60
2019-04-22T18:13:32.222Z,55.90
2019-04-22T18:16:02.339Z,56.10
2019-04-22T18:18:38.293Z,56.30
2019-04-22T18:21:05.890Z,56.60
2019-04-22T18:23:24.901Z,56.80
2019-04-22T18:26:14.114Z,56.90
2019-04-22T18:28:50.962Z,57.10
2019-04-22T18:33:50.174Z,57.50
2019-04-22T18:36:36.073Z,57.70
2019-04-22T18:39:20.940Z,57.90
2019-04-22T18:41:44.018Z,58.10
2019-04-22T18:44:22.640Z,58.40
2019-04-22T18:46:52.446Z,58.60
2019-04-22T18:49:26.909Z,58.70
2019-04-22T18:52:18.429Z,59.10
2019-04-22T18:54:57.625Z,59.10
2019-04-22T18:57:29.888Z,59.40
2019-04-22T19:00:00.127Z,59.50
2019-04-22T19:02:35.105Z,59.70
2019-04-22T19:05:19.902Z,59.90
2019-04-22T19:08:06.952Z,60.20
2019-04-22T19:10:46.389Z,60.30
2019-04-22T19:13:37.665Z,60.60
2019-04-22T19:39:21.002Z,62.50
2019-04-22T19:46:07.197Z,63.00
2019-04-22T19:52:19.406Z,63.40
2019-04-22T20:00:10.906Z,64.40
2019-04-22T20:21:14.284Z,65.30
2019-04-22T20:27:05.673Z,65.60
2019-04-22T20:29:49.754Z,65.80
2019-04-22T20:38:45.399Z,66.40
2019-04-22T20:41:36.625Z,66.50
2019-04-22T20:53:23.010Z,67.70
2019-04-22T20:56:01.030Z,67.90
2019-04-22T21:01:34.427Z,68.20
2019-04-22T21:04:28.984Z,68.40
2019-04-22T21:10:06.565Z,68.60
2019-04-22T21:12:31.617Z,68.80
2019-04-22T21:15:19.403Z,69.00
2019-04-22T21:17:53.441Z,69.00
2019-04-22T21:20:48.049Z,69.00
2019-04-22T21:25:58.047Z,69.20
2019-04-22T21:31:32.405Z,69.20
2019-04-22T21:34:01.046Z,69.40
2019-04-22T21:36:56.016Z,69.40
2019-04-22T21:42:41.734Z,69.80
2019-04-22T21:45:13.315Z,69.80
2019-04-22T21:47:58.840Z,70.00
2019-04-22T21:50:41.364Z,70.00
2019-04-22T21:53:24.923Z,70.20
2019-04-22T21:56:13.003Z,70.30
2019-04-22T21:59:17.508Z,70.40
2019-04-22T22:02:31.361Z,70.50
2019-04-22T22:05:10.161Z,70.50
2019-04-22T22:07:52.129Z,70.40
2019-04-22T22:11:19.493Z,70.50
2019-04-22T22:14:10.292Z,70.30
2019-04-22T22:16:56.205Z,70.20
2019-04-22T22:20:09.984Z,70.20
2019-04-22T22:23:00.359Z,70.40
2019-04-22T22:28:52.232Z,70.50
2019-04-22T23:11:13.479Z,71.70
2019-04-22T23:16:57.722Z,71.80
2019-04-22T23:19:44.765Z,71.80
2019-04-22T23:23:03.843Z,71.40
2019-04-22T23:25:53.238Z,71.30
2019-04-22T23:28:25.764Z,71.40
2019-04-22T23:31:35.464Z,71.50
2019-04-22T23:40:38.838Z,71.50
2019-04-22T23:43:24.181Z,71.50
2019-04-22T23:45:50.410Z,71.50
2019-04-22T23:48:35.884Z,71.50
2019-04-22T23:51:16.467Z,71.50
